Pagrindinis puslapis
METAR-TAF:

METAR-TAF

Oro uostai :

Pchenjanas, Šiaurės Korėja

platuma: 39-02N, ilguma: 125-47E, Aukštis: 36 m

METAR: trūkstamas

Laikas: 13:21 (04:51 UTC)

Prognozė

Ataskaita buvo paskelbta 7 valandos ir 36 minutes, ne 21:15 UTC
Prognozė galioja nuo 18 metu 00 UTC su 18 metu 24 UTC
Vėjas 10 kt iš Šiaurės su gūsio iki 19 kt
Matomumas 10 km arba daugiau
nėra debesų žemiau 1500 m ir nėra kamuolinių lietaus debesų
Tapsmas
nuo 18 metu 10 UTC su 18 metu 12 UTC
Vėjas 8 kt iš Šiaurės/Šiaurės Vakarų

TAF: ZKPY 172115Z 1800/1824 35005G10MPS CAVOK TX22/1806Z TN11/1821Z BECMG 1810/1812 33004MPS

Orai ataskaitas ir orų prognozės (METAR, TAF).

turimą stotys yra geltonos ir raudonos taškus žemėlapyje.

Perkelti pele per norėdami pamatyti stoties vardą.

Tada spustelėkite, norėdami matyti oro stebėjimo ir prognozės.

Norėdami pakeisti žemėlapį: spustelėkite ant žalios mygtukų su juodo kryžiaus žemyn,; žalią mygtuką su brūkšneliu, jei norite nutolinti; arba žalių rodyklių gretimoms žemėlapius.


METAR-TAF: